Time;durP1;ratioP1;P1;durP2;ratioP2;P2;SDS_P1;SDS_P2;PMS_P1;PMS_P2;Temp;Humidity;BMP_temperature;BMP_pressure;BME280_temperature;BME280_humidity;BME280_pressure;Samples;Min_cycle;Max_cycle;Signal;HPM_P1;HPM_P2
2021/11/14 00:00:10;;;;;;;117.65;51.25;;;;;;;-2.08;100.00;102108.59;1697371;82;21092;-42
2021/11/14 00:02:37;;;;;;;112.10;51.77;;;;;;;-2.14;100.00;102106.97;1720109;82;20983;-43
2021/11/14 00:05:05;;;;;;;123.28;53.52;;;;;;;-2.26;100.00;102105.84;1749188;82;21005;-43
2021/11/14 00:07:32;;;;;;;133.55;54.77;;;;;;;-2.37;100.00;102100.11;1749148;82;20936;-43
2021/11/14 00:09:58;;;;;;;116.53;52.00;;;;;;;-2.49;100.00;102096.80;1749211;82;21015;-43
2021/11/14 00:12:25;;;;;;;88.37;42.27;;;;;;;-2.61;100.00;102102.89;1749567;82;21818;-43
2021/11/14 00:14:51;;;;;;;99.10;48.58;;;;;;;-2.69;100.00;102107.85;1749077;82;20948;-43
2021/11/14 00:17:19;;;;;;;110.22;49.13;;;;;;;-2.78;100.00;102100.95;1749170;82;20956;-43
2021/11/14 00:19:46;;;;;;;107.95;48.55;;;;;;;-2.88;100.00;102088.09;1749290;82;21372;-44
2021/11/14 00:22:12;;;;;;;113.95;51.25;;;;;;;-2.96;100.00;102090.13;1749390;82;20951;-44
2021/11/14 00:24:40;;;;;;;103.72;50.03;;;;;;;-3.04;100.00;102096.38;1749118;82;20928;-43
2021/11/14 00:27:07;;;;;;;143.35;55.35;;;;;;;-3.08;100.00;102095.30;1749458;82;21539;-43
2021/11/14 00:29:33;;;;;;;123.13;51.80;;;;;;;-3.15;100.00;102095.70;1749255;82;21489;-43
2021/11/14 00:32:00;;;;;;;123.38;53.20;;;;;;;-3.24;100.00;102095.98;1749129;82;21003;-43
2021/11/14 00:34:26;;;;;;;111.45;49.98;;;;;;;-3.30;100.00;102092.16;1749215;82;21549;-43
2021/11/14 00:36:54;;;;;;;110.83;49.90;;;;;;;-3.36;100.00;102099.00;1749186;81;21084;-43
2021/11/14 00:39:20;;;;;;;107.97;46.83;;;;;;;-3.43;100.00;102098.98;1749118;82;20971;-43
2021/11/14 00:41:47;;;;;;;93.62;42.65;;;;;;;-3.46;100.00;102094.58;1749539;82;21023;-43
2021/11/14 00:44:14;;;;;;;103.97;47.05;;;;;;;-3.49;100.00;102095.66;1749187;80;20928;-43
2021/11/14 00:46:40;;;;;;;110.50;48.73;;;;;;;-3.52;100.00;102096.72;1749400;82;20932;-43
2021/11/14 00:49:06;;;;;;;117.08;48.33;;;;;;;-3.58;100.00;102098.86;1749189;81;21817;-43
2021/11/14 00:51:33;;;;;;;106.45;46.48;;;;;;;-3.65;100.00;102089.98;1721461;82;21312;-43
2021/11/14 00:54:03;;;;;;;98.55;47.20;;;;;;;-3.68;100.00;102092.31;1749242;82;21063;-44
2021/11/14 00:56:30;;;;;;;88.15;41.08;;;;;;;-3.72;100.00;102091.99;1749501;82;21569;-43
2021/11/14 00:58:56;;;;;;;105.35;42.62;;;;;;;-3.74;100.00;102095.70;1721578;82;20959;-43
2021/11/14 01:01:23;;;;;;;113.97;49.23;;;;;;;-3.75;100.00;102091.42;1749671;82;21612;-43
2021/11/14 01:03:49;;;;;;;129.87;53.55;;;;;;;-3.75;100.00;102093.55;1749256;80;21529;-43
2021/11/14 01:06:16;;;;;;;88.90;40.63;;;;;;;-3.77;100.00;102090.04;1749176;81;20924;-43
2021/11/14 01:08:42;;;;;;;68.50;32.48;;;;;;;-3.81;100.00;102088.09;1749271;82;20972;-42
2021/11/14 01:11:09;;;;;;;77.10;35.83;;;;;;;-3.81;100.00;102083.02;1749503;82;20960;-43
2021/11/14 01:13:38;;;;;;;51.08;26.27;;;;;;;-3.83;100.00;102082.42;1749191;80;21923;-43
2021/11/14 01:16:07;;;;;;;61.58;30.32;;;;;;;-3.83;100.00;102095.08;1749526;82;20979;-42
2021/11/14 01:18:33;;;;;;;75.55;32.13;;;;;;;-3.83;100.00;102090.91;1749625;82;21521;-42
2021/11/14 01:21:03;;;;;;;60.98;32.93;;;;;;;-3.80;100.00;102094.91;1749078;81;20924;-43
2021/11/14 01:23:31;;;;;;;70.78;33.55;;;;;;;-3.75;100.00;102097.34;1749365;82;20967;-43
2021/11/14 01:25:57;;;;;;;73.65;34.92;;;;;;;-3.70;100.00;102091.70;1749413;81;21108;-43
2021/11/14 01:28:24;;;;;;;87.40;35.70;;;;;;;-3.69;100.00;102088.39;1749139;82;20963;-43
2021/11/14 01:30:53;;;;;;;97.27;37.80;;;;;;;-3.65;100.00;102087.84;1721665;82;20932;-44
2021/11/14 01:33:23;;;;;;;128.60;36.98;;;;;;;-3.63;100.00;102089.69;1749367;82;21562;-43
2021/11/14 01:35:50;;;;;;;110.17;38.05;;;;;;;-3.56;100.00;102091.34;1749291;82;20987;-43
2021/11/14 01:38:16;;;;;;;118.53;39.75;;;;;;;-3.50;100.00;102088.84;1721780;82;21043;-43
2021/11/14 01:40:53;;;;;;;112.60;38.67;;;;;;;-3.38;100.00;102091.29;1749303;82;20988;-44
2021/11/14 01:43:23;;;;;;;93.78;36.23;;;;;;;-3.29;100.00;102093.55;1749234;82;21518;-44
2021/11/14 01:45:51;;;;;;;95.62;37.67;;;;;;;-3.24;100.00;102091.31;1749232;82;21023;-44
2021/11/14 01:48:18;;;;;;;116.85;38.85;;;;;;;-3.23;100.00;102093.07;1749312;82;20944;-41
2021/11/14 01:50:45;;;;;;;80.17;35.00;;;;;;;-3.26;100.00;102085.28;1738297;82;21806;-42
2021/11/14 01:53:13;;;;;;;78.55;35.92;;;;;;;-3.29;100.00;102090.12;1735184;82;20980;-42
2021/11/14 01:55:43;;;;;;;82.22;36.15;;;;;;;-3.31;100.00;102086.23;1714517;82;20950;-42
2021/11/14 01:58:15;;;;;;;85.45;35.50;;;;;;;-3.33;100.00;102088.66;1735353;81;20941;-43
2021/11/14 02:00:49;;;;;;;78.83;38.45;;;;;;;-3.33;100.00;102087.80;1734549;82;20897;-42
2021/11/14 02:03:16;;;;;;;105.50;42.30;;;;;;;-3.36;100.00;102097.73;1735430;82;21187;-43
2021/11/14 02:05:42;;;;;;;88.17;40.70;;;;;;;-3.41;100.00;102093.63;1735373;82;21628;-43
2021/11/14 02:08:09;;;;;;;82.42;37.25;;;;;;;-3.46;100.00;102098.37;1714232;82;20980;-43
2021/11/14 02:10:38;;;;;;;77.15;37.00;;;;;;;-3.51;100.00;102090.87;1735226;82;20929;-43
2021/11/14 02:13:05;;;;;;;85.80;36.48;;;;;;;-3.54;100.00;102097.02;1735701;82;21491;-43
2021/11/14 02:15:31;;;;;;;88.82;40.12;;;;;;;-3.55;100.00;102101.59;1735264;81;21149;-42
2021/11/14 02:17:58;;;;;;;78.20;35.52;;;;;;;-3.60;100.00;102100.41;1735142;82;21015;-43
2021/11/14 02:20:24;;;;;;;85.12;40.25;;;;;;;-3.67;100.00;102104.56;1735221;82;22162;-43
2021/11/14 02:22:51;;;;;;;78.52;37.95;;;;;;;-3.77;100.00;102107.76;1735441;82;20925;-43
2021/11/14 02:25:19;;;;;;;82.67;35.48;;;;;;;-3.85;100.00;102113.97;1735211;82;20977;-43
2021/11/14 02:27:47;;;;;;;54.55;27.40;;;;;;;-3.92;100.00;102119.38;1735370;82;21851;-45
2021/11/14 02:30:13;;;;;;;59.35;29.15;;;;;;;-3.98;100.00;102117.70;1735198;82;20968;-42
2021/11/14 02:32:40;;;;;;;61.35;31.33;;;;;;;-3.99;100.00;102115.95;1735105;82;21622;-42
2021/11/14 02:35:08;;;;;;;65.85;32.08;;;;;;;-3.97;100.00;102123.25;1735308;82;21032;-43
2021/11/14 02:37:35;;;;;;;46.45;27.48;;;;;;;-3.96;100.00;102121.21;1735463;82;20929;-43
2021/11/14 02:40:05;;;;;;;50.23;27.42;;;;;;;-3.97;100.00;102120.72;1735185;82;21555;-44
2021/11/14 02:42:31;;;;;;;54.53;24.50;;;;;;;-3.97;100.00;102125.41;1735434;82;20957;-44
2021/11/14 02:44:58;;;;;;;62.45;28.85;;;;;;;-3.94;100.00;102128.52;1735261;82;20925;-43
2021/11/14 02:47:24;;;;;;;56.05;27.73;;;;;;;-3.86;100.00;102122.34;1735479;82;21467;-43
2021/11/14 02:49:52;;;;;;;77.27;29.90;;;;;;;-3.79;100.00;102119.44;1738985;81;21000;-43
2021/11/14 02:52:18;;;;;;;61.05;28.40;;;;;;;-3.69;100.00;102115.88;1749244;82;21219;-43
2021/11/14 02:54:45;;;;;;;66.47;28.65;;;;;;;-3.59;100.00;102118.63;1749071;81;21421;-43
2021/11/14 02:57:11;;;;;;;59.27;29.12;;;;;;;-3.51;100.00;102114.08;1749238;82;20944;-43
2021/11/14 02:59:38;;;;;;;64.90;29.60;;;;;;;-3.43;100.00;102115.81;1749146;82;20889;-42
2021/11/14 03:02:04;;;;;;;60.78;27.67;;;;;;;-3.41;100.00;102112.63;1749225;82;20991;-43
2021/11/14 03:04:31;;;;;;;63.58;29.12;;;;;;;-3.38;100.00;102109.42;1749113;82;21038;-43
2021/11/14 03:06:58;;;;;;;65.10;29.45;;;;;;;-3.35;100.00;102118.08;1749179;82;20948;-43
2021/11/14 03:09:24;;;;;;;69.65;28.25;;;;;;;-3.32;100.00;102114.47;1749444;82;20976;-42
2021/11/14 03:11:52;;;;;;;73.92;30.08;;;;;;;-3.29;100.00;102117.98;1748985;82;21466;-43
2021/11/14 03:14:19;;;;;;;61.13;30.65;;;;;;;-3.25;100.00;102121.23;1749453;82;20996;-43
2021/11/14 03:16:46;;;;;;;80.25;33.67;;;;;;;-3.26;100.00;102115.67;1749128;82;21096;-43
2021/11/14 03:19:12;;;;;;;67.90;32.33;;;;;;;-3.32;100.00;102113.61;1749456;82;20929;-42
2021/11/14 03:21:38;;;;;;;69.92;34.30;;;;;;;-3.40;100.00;102109.31;1749159;82;20893;-43
2021/11/14 03:24:07;;;;;;;57.95;28.27;;;;;;;-3.49;100.00;102111.25;1749105;82;21494;-43
2021/11/14 03:26:34;;;;;;;70.92;31.45;;;;;;;-3.55;100.00;102114.63;1749151;82;20995;-42
2021/11/14 03:29:00;;;;;;;71.28;31.15;;;;;;;-3.58;100.00;102115.31;1749335;81;21522;-43
2021/11/14 03:31:27;;;;;;;80.45;32.75;;;;;;;-3.63;100.00;102112.47;1749149;82;21032;-43
2021/11/14 03:33:56;;;;;;;82.88;32.20;;;;;;;-3.66;100.00;102110.14;1749413;82;20999;-43
2021/11/14 03:36:23;;;;;;;82.53;33.00;;;;;;;-3.70;100.00;102114.48;1749119;82;21054;-43
2021/11/14 03:38:54;;;;;;;75.57;31.87;;;;;;;-3.75;100.00;102113.80;1749090;81;21520;-43
2021/11/14 03:41:23;;;;;;;102.95;33.90;;;;;;;-3.78;100.00;102114.86;1748942;82;21137;-42
2021/11/14 03:43:51;;;;;;;96.47;33.42;;;;;;;-3.77;100.00;102110.29;1749398;82;20929;-42
2021/11/14 03:46:18;;;;;;;85.20;30.75;;;;;;;-3.77;100.00;102109.02;1721324;82;21011;-43
2021/11/14 03:48:47;;;;;;;96.53;34.45;;;;;;;-3.75;100.00;102112.53;1748997;82;21434;-42
2021/11/14 03:51:13;;;;;;;100.55;32.93;;;;;;;-3.72;100.00;102113.52;1739258;81;21012;-42
2021/11/14 03:53:40;;;;;;;80.10;33.25;;;;;;;-3.69;100.00;102107.01;1735337;82;21853;-42
2021/11/14 03:56:07;;;;;;;97.57;33.02;;;;;;;-3.68;100.00;102108.77;1735102;82;21016;-42
2021/11/14 03:58:34;;;;;;;93.65;33.35;;;;;;;-3.68;100.00;102110.41;1735241;82;21569;-42
2021/11/14 04:01:03;;;;;;;110.42;34.63;;;;;;;-3.70;100.00;102114.12;1714209;82;20930;-42
2021/11/14 04:03:31;;;;;;;118.33;32.75;;;;;;;-3.72;100.00;102116.05;1714076;82;20941;-43
2021/11/14 04:05:57;;;;;;;103.80;36.17;;;;;;;-3.75;100.00;102118.00;1735289;82;22303;-42
2021/11/14 04:08:25;;;;;;;108.60;35.23;;;;;;;-3.78;100.00;102121.59;1735056;82;20929;-43
2021/11/14 04:10:54;;;;;;;130.00;35.63;;;;;;;-3.78;100.00;102122.86;1735294;82;21393;-42
2021/11/14 04:13:21;;;;;;;105.05;35.10;;;;;;;-3.79;100.00;102129.56;1735270;82;20886;-43
2021/11/14 04:15:47;;;;;;;135.15;38.70;;;;;;;-3.79;100.00;102121.08;1735275;82;20944;-42
2021/11/14 04:18:15;;;;;;;128.02;39.85;;;;;;;-3.80;100.00;102125.27;1735287;82;21139;-43
2021/11/14 04:20:43;;;;;;;128.18;38.40;;;;;;;-3.81;100.00;102120.98;1735123;82;20976;-42
2021/11/14 04:23:10;;;;;;;122.00;39.08;;;;;;;-3.82;100.00;102131.00;1735278;82;20897;-43
2021/11/14 04:25:38;;;;;;;126.27;40.43;;;;;;;-3.80;100.00;102126.54;1735157;82;20972;-43
2021/11/14 04:28:06;;;;;;;120.87;42.35;;;;;;;-3.83;100.00;102123.81;1735373;82;21039;-42
2021/11/14 04:30:34;;;;;;;125.42;41.85;;;;;;;-3.88;100.00;102120.47;1735266;82;21371;-45
2021/11/14 04:33:01;;;;;;;149.40;43.15;;;;;;;-3.91;100.00;102127.08;1735234;81;20929;-43
2021/11/14 04:35:27;;;;;;;139.32;44.58;;;;;;;-3.93;100.00;102136.59;1735477;82;21463;-43
2021/11/14 04:37:54;;;;;;;136.12;50.70;;;;;;;-3.95;100.00;102133.98;1735320;82;20960;-43
2021/11/14 04:40:23;;;;;;;143.43;47.55;;;;;;;-3.94;100.00;102138.64;1735594;82;21003;-43
2021/11/14 04:42:50;;;;;;;107.15;40.00;;;;;;;-3.92;100.00;102147.20;1735299;82;21074;-43
2021/11/14 04:45:16;;;;;;;114.37;36.83;;;;;;;-3.91;100.00;102143.94;1714153;82;21031;-43
2021/11/14 04:47:43;;;;;;;80.25;33.98;;;;;;;-3.88;100.00;102146.67;1714455;82;21450;-41
2021/11/14 04:50:11;;;;;;;111.32;36.83;;;;;;;-3.86;100.00;102147.65;1737064;81;20977;-42
2021/11/14 04:52:39;;;;;;;125.02;38.88;;;;;;;-3.86;100.00;102146.75;1749289;82;21430;-42
2021/11/14 04:55:07;;;;;;;113.45;41.63;;;;;;;-3.85;100.00;102151.94;1749221;82;21056;-42
2021/11/14 04:57:34;;;;;;;100.50;42.00;;;;;;;-3.89;100.00;102155.04;1749221;82;20979;-42
2021/11/14 05:00:00;;;;;;;108.50;43.52;;;;;;;-3.91;100.00;102160.39;1749307;82;20976;-42
2021/11/14 05:02:27;;;;;;;123.60;47.50;;;;;;;-3.91;100.00;102160.39;1749422;82;21497;-42
2021/11/14 05:04:53;;;;;;;117.53;48.23;;;;;;;-3.91;100.00;102160.39;1749428;82;20971;-43
2021/11/14 05:07:21;;;;;;;140.10;51.65;;;;;;;-3.90;100.00;102165.53;1749372;82;20968;-43
2021/11/14 05:09:49;;;;;;;130.67;52.08;;;;;;;-3.85;100.00;102168.39;1749098;82;20929;-43
2021/11/14 05:12:16;;;;;;;126.50;50.55;;;;;;;-3.81;100.00;102175.78;1749548;82;20988;-42
2021/11/14 05:14:43;;;;;;;117.93;50.73;;;;;;;-3.76;100.00;102174.06;1749197;82;20901;-42
2021/11/14 05:17:10;;;;;;;127.55;52.25;;;;;;;-3.71;100.00;102179.45;1749489;82;21549;-43
2021/11/14 05:19:38;;;;;;;117.35;48.83;;;;;;;-3.66;100.00;102175.97;1749193;82;21008;-43
2021/11/14 05:22:04;;;;;;;129.97;50.00;;;;;;;-3.62;100.00;102176.66;1721518;82;20905;-43
2021/11/14 05:24:31;;;;;;;124.58;49.25;;;;;;;-3.59;100.00;102170.91;1749177;82;21503;-43
2021/11/14 05:26:58;;;;;;;107.95;42.13;;;;;;;-3.53;100.00;102178.94;1749162;82;20928;-43
2021/11/14 05:29:25;;;;;;;112.57;43.52;;;;;;;-3.43;100.00;102177.49;1749192;82;20988;-41
2021/11/14 05:31:52;;;;;;;93.70;36.23;;;;;;;-3.30;100.00;102176.65;1749351;82;22290;-42
2021/11/14 05:34:18;;;;;;;102.10;40.23;;;;;;;-3.05;100.00;102176.98;1749333;82;20964;-43
2021/11/14 05:36:45;;;;;;;115.08;40.98;;;;;;;-2.75;100.00;102173.02;1749172;80;20956;-43
2021/11/14 05:39:11;;;;;;;98.97;38.70;;;;;;;-2.52;100.00;102172.70;1749537;82;21549;-43
2021/11/14 05:41:37;;;;;;;85.05;34.63;;;;;;;-2.37;100.00;102172.41;1721365;82;20980;-43
2021/11/14 05:44:04;;;;;;;94.83;38.98;;;;;;;-2.23;100.00;102175.80;1749478;82;21109;-43
2021/11/14 05:46:31;;;;;;;102.90;38.60;;;;;;;-2.09;100.00;102179.18;1749367;82;21525;-43
2021/11/14 05:48:57;;;;;;;128.42;43.65;;;;;;;-2.04;100.00;102180.33;1749145;82;20992;-43
2021/11/14 05:51:24;;;;;;;109.57;41.85;;;;;;;-2.03;100.00;102178.28;1749183;81;21003;-44
2021/11/14 05:53:50;;;;;;;93.67;35.35;;;;;;;-2.06;100.00;102181.01;1749283;82;21565;-43
2021/11/14 05:56:16;;;;;;;89.80;34.92;;;;;;;-2.04;100.00;102187.95;1721510;82;21743;-44
2021/11/14 05:59:01;;;;;;;100.20;36.93;;;;;;;-1.96;100.00;102190.06;1721258;82;20908;-43
2021/11/14 06:01:29;;;;;;;82.08;33.40;;;;;;;-1.83;100.00;102191.30;1747218;82;20980;-44
2021/11/14 06:04:05;;;;;;;70.40;31.90;;;;;;;-1.70;100.00;102191.65;1720537;82;21522;-42
2021/11/14 06:06:23;;;;;;;71.50;31.52;;;;;;;-1.58;100.00;102201.66;1747592;82;20920;-42
2021/11/14 06:08:50;;;;;;;68.52;32.50;;;;;;;-1.45;100.00;102188.88;1749391;82;21114;-43
2021/11/14 06:11:16;;;;;;;81.08;32.90;;;;;;;-1.34;100.00;102192.46;1749223;82;21520;-43
2021/11/14 06:13:43;;;;;;;75.28;32.88;;;;;;;-1.25;100.00;102187.05;1749255;82;20972;-43
2021/11/14 06:16:10;;;;;;;92.75;34.80;;;;;;;-1.17;100.00;102189.63;1749187;82;20976;-44
2021/11/14 06:18:36;;;;;;;71.15;32.00;;;;;;;-1.10;100.00;102192.13;1749541;82;21099;-43
2021/11/14 06:21:03;;;;;;;87.65;34.00;;;;;;;-1.05;100.00;102186.49;1749284;82;21896;-42
2021/11/14 06:23:29;;;;;;;71.35;30.50;;;;;;;-0.96;100.00;102182.33;1749077;81;21006;-42
2021/11/14 06:25:56;;;;;;;79.45;30.25;;;;;;;-0.87;100.00;102173.97;1749359;82;21692;-42
2021/11/14 06:28:23;;;;;;;71.33;28.40;;;;;;;-0.79;100.00;102174.78;1749519;82;20980;-42
2021/11/14 06:30:49;;;;;;;73.87;30.23;;;;;;;-0.79;100.00;102178.19;1749225;82;20968;-42
2021/11/14 06:33:15;;;;;;;75.87;29.67;;;;;;;-0.76;100.00;102180.93;1749504;82;21056;-43
2021/11/14 06:35:42;;;;;;;62.70;29.35;;;;;;;-0.72;100.00;102175.59;1749179;82;20963;-43
2021/11/14 06:38:08;;;;;;;67.25;31.82;;;;;;;-0.65;100.00;102170.05;1749087;82;21015;-42
2021/11/14 06:40:35;;;;;;;56.75;28.07;;;;;;;-0.59;100.00;102171.69;1749416;82;20900;-42
2021/11/14 06:43:01;;;;;;;77.85;28.85;;;;;;;-0.46;100.00;102167.25;1749424;82;20937;-42
2021/11/14 06:45:28;;;;;;;47.70;26.52;;;;;;;-0.41;100.00;102164.97;1749241;82;21139;-42
2021/11/14 06:47:54;;;;;;;55.55;26.80;;;;;;;-0.31;100.00;102158.29;1749254;82;20908;-42
2021/11/14 06:50:20;;;;;;;64.05;30.90;;;;;;;-0.31;100.00;102161.73;1749498;82;21015;-42
2021/11/14 06:52:47;;;;;;;62.33;28.15;;;;;;;-0.27;100.00;102164.02;1749276;82;21455;-42
2021/11/14 06:55:15;;;;;;;67.70;28.85;;;;;;;-0.15;100.00;102162.52;1749258;82;20971;-42
2021/11/14 06:57:41;;;;;;;63.40;29.50;;;;;;;-0.03;100.00;102161.91;1749080;82;21148;-43
2021/11/14 07:00:14;;;;;;;67.37;29.60;;;;;;;0.10;100.00;102158.72;1749169;82;21526;-42
2021/11/14 07:02:41;;;;;;;71.02;30.55;;;;;;;0.22;100.00;102151.73;1749109;81;20972;-42
2021/11/14 07:05:08;;;;;;;71.37;31.85;;;;;;;0.29;100.00;102158.02;1749063;82;21507;-42
2021/11/14 07:07:35;;;;;;;66.87;30.48;;;;;;;0.38;100.00;102148.28;1721588;82;20968;-42
2021/11/14 07:10:03;;;;;;;64.67;29.52;;;;;;;0.48;100.00;102152.17;1749179;82;21959;-42
2021/11/14 07:12:29;;;;;;;73.00;29.72;;;;;;;0.56;100.00;102163.62;1749154;82;20924;-42
2021/11/14 07:14:56;;;;;;;66.53;29.77;;;;;;;0.66;100.00;102160.27;1721957;82;21457;-43
2021/11/14 07:17:25;;;;;;;55.80;29.48;;;;;;;0.68;100.00;102154.85;1749093;82;20980;-43
2021/11/14 07:19:51;;;;;;;54.10;30.23;;;;;;;0.75;100.00;102148.36;1749298;82;21512;-43
2021/11/14 07:22:17;;;;;;;70.37;32.65;;;;;;;0.86;100.00;102145.95;1749286;82;22017;-43
2021/11/14 07:24:45;;;;;;;66.45;33.60;;;;;;;0.93;100.00;102147.12;1749061;82;20971;-44
2021/11/14 07:27:11;;;;;;;70.35;35.30;;;;;;;1.04;100.00;102149.78;1721820;82;20972;-43
2021/11/14 07:29:38;;;;;;;63.00;34.90;;;;;;;1.20;100.00;102151.38;1749133;82;20968;-43
2021/11/14 07:32:06;;;;;;;61.15;32.20;;;;;;;1.34;100.00;102142.23;1749284;82;21028;-42
2021/11/14 07:34:33;;;;;;;56.70;30.12;;;;;;;1.50;100.00;102147.64;1749204;80;21146;-43
2021/11/14 07:36:59;;;;;;;53.95;28.17;;;;;;;1.60;100.00;102149.80;1749090;82;20921;-44
2021/11/14 07:39:25;;;;;;;62.98;32.50;;;;;;;1.69;100.00;102157.91;1749297;82;20904;-45
2021/11/14 07:41:52;;;;;;;50.73;28.50;;;;;;;1.84;100.00;102154.27;1749135;82;20987;-44
2021/11/14 07:44:19;;;;;;;51.08;28.02;;;;;;;2.00;100.00;102150.33;1749076;82;20944;-44
2021/11/14 07:46:45;;;;;;;50.73;27.00;;;;;;;2.12;100.00;102154.22;1749123;82;21243;-43
2021/11/14 07:49:11;;;;;;;53.28;27.45;;;;;;;2.19;100.00;102148.97;1721184;82;21493;-44
2021/11/14 07:51:38;;;;;;;57.40;28.20;;;;;;;2.16;100.00;102151.02;1744493;81;21537;-45
2021/11/14 07:54:04;;;;;;;52.08;28.60;;;;;;;2.16;100.00;102151.02;1713943;82;20980;-43
2021/11/14 07:56:31;;;;;;;55.30;29.90;;;;;;;2.12;100.00;102151.66;1735143;81;20937;-44
2021/11/14 07:58:58;;;;;;;50.33;27.73;;;;;;;1.99;100.00;102148.58;1735308;82;21083;-43
2021/11/14 08:01:24;;;;;;;51.75;28.25;;;;;;;2.01;100.00;102153.74;1735102;82;21517;-43
2021/11/14 08:03:52;;;;;;;52.58;29.90;;;;;;;2.02;100.00;102154.20;1735182;82;20933;-43
2021/11/14 08:08:07;;;;;;;58.40;30.95;;;;;;;2.08;100.00;102151.06;1797739;79;22585;-42
2021/11/14 08:10:34;;;;;;;57.30;30.37;;;;;;;1.98;100.00;102148.11;1757499;81;21628;-43
2021/11/14 08:13:01;;;;;;;61.35;30.20;;;;;;;1.88;100.00;102148.91;1757447;81;21118;-43
2021/11/14 08:15:28;;;;;;;54.93;29.80;;;;;;;1.84;100.00;102146.61;1738160;81;21522;-44
2021/11/14 08:17:55;;;;;;;65.08;30.30;;;;;;;1.87;100.00;102150.58;1757508;81;21497;-43
2021/11/14 08:20:21;;;;;;;54.67;29.60;;;;;;;2.02;100.00;102137.60;1757358;81;21007;-43
2021/11/14 08:22:49;;;;;;;52.00;30.02;;;;;;;2.23;100.00;102141.52;1757421;81;20924;-43
2021/11/14 08:25:17;;;;;;;59.98;31.33;;;;;;;2.37;100.00;102133.16;1757498;81;21123;-44
2021/11/14 08:27:44;;;;;;;50.35;29.80;;;;;;;2.64;100.00;102129.11;1757627;81;20964;-43
2021/11/14 08:30:13;;;;;;;53.50;29.60;;;;;;;2.64;100.00;102129.11;1757364;81;20995;-43
2021/11/14 08:32:40;;;;;;;63.17;30.75;;;;;;;2.76;100.00;102125.80;1738093;81;20999;-46
2021/11/14 08:35:08;;;;;;;60.15;30.65;;;;;;;2.92;100.00;102122.16;1757412;81;20999;-44
2021/11/14 08:37:34;;;;;;;56.58;31.07;;;;;;;2.99;100.00;102111.35;1757547;81;21279;-42
2021/11/14 08:40:06;;;;;;;56.75;30.35;;;;;;;2.99;100.00;102111.77;1757295;80;21544;-44
2021/11/14 08:42:33;;;;;;;52.85;28.85;;;;;;;2.93;100.00;102114.09;1757620;81;21437;-44
2021/11/14 08:44:59;;;;;;;51.53;27.05;;;;;;;2.98;100.00;102117.70;1757442;81;20948;-44
2021/11/14 08:47:26;;;;;;;52.70;27.77;;;;;;;3.04;100.00;102117.08;1757468;81;20992;-43
2021/11/14 08:49:53;;;;;;;53.28;26.33;;;;;;;3.03;100.00;102111.08;1757400;81;21158;-44
2021/11/14 08:52:19;;;;;;;53.75;28.42;;;;;;;3.03;100.00;102111.08;1757537;81;20944;-43
2021/11/14 08:54:46;;;;;;;50.23;26.82;;;;;;;3.30;100.00;102104.00;1750976;81;21541;-44
2021/11/14 08:57:17;;;;;;;45.03;26.00;;;;;;;3.56;100.00;102105.38;1749128;82;21022;-44
2021/11/14 08:59:41;;;;;;;46.50;25.88;;;;;;;3.56;100.00;102105.38;1748717;82;20901;-45
2021/11/14 09:02:07;;;;;;;51.98;27.70;;;;;;;3.84;100.00;102099.98;1749086;81;21074;-44
2021/11/14 09:04:34;;;;;;;47.60;26.42;;;;;;;4.04;100.00;102101.95;1749392;82;21510;-44
2021/11/14 09:07:00;;;;;;;45.90;27.55;;;;;;;4.23;100.00;102100.03;1743373;82;21454;-43
2021/11/14 09:09:27;;;;;;;49.80;26.10;;;;;;;4.40;100.00;102091.23;1714658;82;21016;-43
2021/11/14 09:11:54;;;;;;;60.70;26.42;;;;;;;4.65;100.00;102087.30;1714817;82;20972;-43
2021/11/14 09:14:21;;;;;;;52.70;25.52;;;;;;;4.86;100.00;102085.41;1714930;82;21127;-44
2021/11/14 09:16:51;;;;;;;51.83;26.73;;;;;;;5.08;100.00;102078.81;1735893;82;20984;-44
2021/11/14 09:19:17;;;;;;;49.35;26.50;;;;;;;5.26;100.00;102083.19;1735373;82;21501;-43
2021/11/14 09:21:44;;;;;;;48.33;25.97;;;;;;;5.43;100.00;102078.58;1735326;82;20889;-44
2021/11/14 09:24:10;;;;;;;46.40;22.93;;;;;;;5.59;99.88;102078.59;1735377;82;20936;-43
2021/11/14 09:26:37;;;;;;;49.50;25.48;;;;;;;5.76;98.15;102074.31;1735503;82;21126;-44
2021/11/14 09:29:04;;;;;;;52.75;26.52;;;;;;;5.89;97.17;102074.23;1735240;82;20928;-43
2021/11/14 09:31:33;;;;;;;56.00;27.58;;;;;;;6.06;94.64;102070.00;1735294;82;21478;-44
2021/11/14 09:34:01;;;;;;;45.83;24.82;;;;;;;6.14;92.23;102068.09;1735342;82;20945;-43
2021/11/14 09:36:30;;;;;;;46.50;25.37;;;;;;;6.24;91.60;102064.45;1714521;82;21490;-44
2021/11/14 09:39:04;;;;;;;45.15;24.12;;;;;;;6.32;88.32;102061.24;1735418;82;21613;-44
2021/11/14 09:41:35;;;;;;;44.15;24.70;;;;;;;6.38;87.26;102064.39;1735464;82;21526;-47
2021/11/14 09:44:02;;;;;;;49.70;24.63;;;;;;;6.48;86.35;102065.49;1685508;82;20972;-44
2021/11/14 09:46:30;;;;;;;46.37;24.60;;;;;;;6.65;85.62;102063.72;1735224;82;20956;-43
2021/11/14 09:48:58;;;;;;;45.35;24.00;;;;;;;6.84;83.57;102065.89;1735300;82;20992;-45
2021/11/14 09:51:24;;;;;;;42.23;22.58;;;;;;;6.98;82.75;102058.91;1735539;82;21062;-44
2021/11/14 09:53:53;;;;;;;41.73;22.70;;;;;;;7.13;81.83;102054.08;1735460;82;21455;-44
2021/11/14 09:56:19;;;;;;;41.92;24.12;;;;;;;7.24;80.68;102051.73;1735626;82;21024;-44
2021/11/14 09:58:46;;;;;;;41.25;23.75;;;;;;;7.33;80.35;102041.63;1735650;82;21004;-45
2021/11/14 10:01:12;;;;;;;46.48;24.82;;;;;;;7.45;78.77;102042.30;1714300;82;21006;-45
2021/11/14 10:03:39;;;;;;;38.58;23.12;;;;;;;7.57;78.51;102036.92;1735363;82;21882;-44
2021/11/14 10:06:05;;;;;;;39.30;22.73;;;;;;;7.71;77.61;102033.32;1735322;82;21039;-44
2021/11/14 10:08:38;;;;;;;42.95;23.45;;;;;;;7.84;76.54;102030.55;1727868;81;20904;-45
2021/11/14 10:11:05;;;;;;;35.25;22.05;;;;;;;7.97;76.18;102035.09;1757074;81;21007;-44
2021/11/14 10:13:34;;;;;;;38.92;21.97;;;;;;;8.12;74.99;102025.88;1757104;81;20986;-43
2021/11/14 10:16:19;;;;;;;37.65;21.15;;;;;;;8.22;74.68;102026.89;1729062;81;21024;-43
2021/11/14 10:18:57;;;;;;;40.58;21.80;;;;;;;8.30;74.02;102030.05;1755488;81;21469;-44
2021/11/14 10:21:25;;;;;;;41.48;23.22;;;;;;;8.34;73.12;102030.98;1756973;81;21584;-44
2021/11/14 10:23:52;;;;;;;38.83;21.80;;;;;;;8.31;72.83;102027.91;1757006;81;21018;-44
2021/11/14 10:26:19;;;;;;;36.88;22.15;;;;;;;8.27;72.32;102031.30;1757040;81;20931;-43
2021/11/14 10:28:47;;;;;;;39.05;23.22;;;;;;;8.22;72.37;102029.06;1756951;81;21853;-44
2021/11/14 10:31:17;;;;;;;39.65;22.60;;;;;;;8.22;72.43;102025.20;1757113;81;21537;-44
2021/11/14 10:33:43;;;;;;;39.63;22.87;;;;;;;8.26;72.35;102026.09;1756354;81;20956;-45
2021/11/14 10:36:09;;;;;;;35.65;20.97;;;;;;;8.23;71.88;102025.64;1757284;81;21014;-44
2021/11/14 10:38:38;;;;;;;41.10;22.13;;;;;;;8.14;71.84;102017.73;1757132;81;20936;-44
2021/11/14 10:41:08;;;;;;;39.48;21.75;;;;;;;7.98;71.74;102020.48;1757047;81;21470;-45
2021/11/14 10:43:38;;;;;;;37.90;22.90;;;;;;;7.93;72.30;102019.09;1756984;81;20995;-44
2021/11/14 10:46:03;;;;;;;45.25;23.30;;;;;;;7.92;71.59;102018.65;1756889;81;20988;-45
2021/11/14 10:48:33;;;;;;;45.58;23.60;;;;;;;7.89;71.77;102014.73;1756881;81;20944;-43
2021/11/14 10:51:02;;;;;;;40.48;22.60;;;;;;;7.86;71.71;102010.81;1757013;81;20983;-44
2021/11/14 10:53:31;;;;;;;37.33;22.45;;;;;;;7.80;71.14;102008.98;1756960;81;21162;-45
2021/11/14 10:56:03;;;;;;;44.03;23.30;;;;;;;7.63;70.97;102011.27;1757160;81;20904;-44
2021/11/14 10:58:31;;;;;;;42.95;22.35;;;;;;;7.59;71.62;102004.31;1728879;81;21015;-44
2021/11/14 11:01:01;;;;;;;41.05;22.27;;;;;;;7.61;71.82;102010.37;1757134;81;21710;-46
2021/11/14 11:03:38;;;;;;;45.67;24.60;;;;;;;7.66;71.89;102010.46;1755657;81;21010;-47
2021/11/14 11:06:08;;;;;;;41.68;23.52;;;;;;;7.70;71.37;102013.10;1754040;81;21083;-44